KMJQ

Jackson Municipal Airport

Jackson, Minnesota, USA
METAR KMJQ 211956Z AUTO 13016G19KT 10SM OVC031 M11/M14 A3003 RMK AO2
Observed Flight Rules
Jan-21 @ 19:56 UTC (7 minutes ago) Visual Flight Rules
Wind Visibility Clouds
130° at 16 knots
 Gusting to 19 knots
10 miles
  • Overcast at 3,100' AGL
Temperatures Readings
Current -11°C / 12°F
Dewpoint -14°C / 7°F
Humidity 79%
Altimeter 30.03" Hg
Pressure 1016.92 hPa
Elevation 441
METAR KMJQ 211956Z AUTO 13016G19KT 10SM OVC031 M11/M14 A3003 RMK AO2
Observed Flight Rules
Jan-21 @ 19:56 UTC
(7 minutes ago)
VFR
Wind Visibility
130° at 16 knots
 Gusting to 19 knots
10 miles
Clouds
  • Overcast at 3,100' AGL
Temperature Dewpoint
-11°C / 12°F -14°C / 7°F
Humidity Altimeter Pressure
79% 30.03" Hg 1016.92 hPa